createdAt,value
2023-04-16T00:00:09.815Z,9.98
2023-04-16T00:02:59.366Z,9.99
2023-04-16T00:05:46.037Z,9.99
2023-04-16T00:08:32.454Z,9.96
2023-04-16T00:11:18.873Z,9.97
2023-04-16T00:14:05.205Z,9.99
2023-04-16T00:16:51.084Z,9.99
2023-04-16T00:19:37.354Z,10.02
2023-04-16T00:22:23.386Z,10.06
2023-04-16T00:25:10.111Z,10.02
2023-04-16T00:27:55.945Z,10.09
2023-04-16T00:30:42.003Z,10.09
2023-04-16T00:33:27.689Z,10.10
2023-04-16T00:36:13.519Z,10.10
2023-04-16T00:38:59.593Z,10.08
2023-04-16T00:41:47.508Z,10.02
2023-04-16T00:44:36.068Z,9.99
2023-04-16T00:47:22.215Z,9.92
2023-04-16T00:50:12.009Z,9.89
2023-04-16T00:52:58.470Z,9.89
2023-04-16T00:55:46.097Z,9.92
2023-04-16T00:58:33.553Z,9.92
2023-04-16T01:01:19.276Z,9.91
2023-04-16T01:04:07.346Z,9.89
2023-04-16T01:06:53.311Z,9.87
2023-04-16T01:09:39.332Z,9.86
2023-04-16T01:12:25.562Z,9.84
2023-04-16T01:15:12.034Z,9.89
2023-04-16T01:17:58.186Z,9.83
2023-04-16T01:20:45.127Z,9.91
2023-04-16T01:23:32.555Z,9.92
2023-04-16T01:26:18.559Z,9.89
2023-04-16T01:29:04.350Z,9.92
2023-04-16T01:31:50.117Z,9.84
2023-04-16T01:34:45.608Z,9.93
2023-04-16T01:37:31.589Z,9.88
2023-04-16T01:40:18.472Z,9.87
2023-04-16T01:43:05.853Z,9.82
2023-04-16T01:45:53.364Z,9.81
2023-04-16T01:48:39.266Z,9.82
2023-04-16T01:51:25.336Z,9.80
2023-04-16T01:54:11.326Z,9.77
2023-04-16T01:56:58.855Z,9.83
2023-04-16T01:59:44.721Z,9.81
2023-04-16T02:02:30.781Z,9.80
2023-04-16T02:05:16.938Z,9.82
2023-04-16T02:08:03.244Z,9.77
2023-04-16T02:10:50.457Z,9.77
2023-04-16T02:13:36.626Z,9.83
2023-04-16T02:16:23.040Z,9.80
2023-04-16T02:19:45.403Z,9.74
2023-04-16T02:22:31.557Z,9.76
2023-04-16T02:25:17.537Z,9.76
2023-04-16T02:28:03.538Z,9.75
2023-04-16T02:30:54.831Z,9.74
2023-04-16T02:33:41.148Z,9.75
2023-04-16T02:36:27.632Z,9.73
2023-04-16T02:39:14.361Z,9.75
2023-04-16T02:42:02.608Z,9.74
2023-04-16T02:44:48.898Z,9.74
2023-04-16T02:47:34.845Z,9.74
2023-04-16T02:50:22.228Z,9.73
2023-04-16T02:53:08.365Z,9.72
2023-04-16T02:55:55.520Z,9.73
2023-04-16T02:58:41.618Z,9.71
2023-04-16T03:01:28.651Z,9.64
2023-04-16T03:04:14.465Z,9.55
2023-04-16T03:07:00.547Z,9.47
2023-04-16T03:09:46.922Z,9.39
2023-04-16T03:12:32.878Z,9.34
2023-04-16T03:15:18.815Z,9.35
2023-04-16T03:18:04.851Z,9.32
2023-04-16T03:20:53.927Z,9.35
2023-04-16T03:23:39.964Z,9.39
2023-04-16T03:26:25.867Z,9.37
2023-04-16T03:29:11.869Z,9.40
2023-04-16T03:31:57.816Z,9.38
2023-04-16T03:34:45.139Z,9.39
2023-04-16T03:37:31.468Z,9.38
2023-04-16T03:40:17.448Z,9.38
2023-04-16T03:43:04.615Z,9.34
2023-04-16T03:45:51.031Z,9.37
2023-04-16T03:48:40.566Z,9.35
2023-04-16T03:51:27.188Z,9.39
2023-04-16T03:54:13.315Z,9.36
2023-04-16T03:57:02.508Z,9.42
2023-04-16T03:59:48.888Z,9.45
2023-04-16T04:02:36.814Z,9.44
2023-04-16T04:05:23.257Z,9.48
2023-04-16T04:08:09.769Z,9.53
2023-04-16T04:10:56.166Z,9.54
2023-04-16T04:13:43.584Z,9.56
2023-04-16T04:16:29.527Z,9.54
2023-04-16T04:19:18.301Z,9.55
2023-04-16T04:22:04.267Z,9.55
2023-04-16T04:24:50.147Z,9.58
2023-04-16T04:27:36.202Z,9.56
2023-04-16T04:30:22.520Z,9.50
2023-04-16T04:33:08.843Z,9.54
2023-04-16T04:35:57.967Z,9.49
2023-04-16T04:38:44.681Z,9.53
2023-04-16T04:41:31.172Z,9.53
2023-04-16T04:44:17.056Z,9.57
2023-04-16T04:47:03.157Z,9.57
2023-04-16T04:49:49.431Z,9.58
2023-04-16T04:52:36.125Z,9.60
2023-04-16T04:55:22.420Z,9.61
2023-04-16T04:58:09.990Z,9.66
2023-04-16T05:00:58.183Z,9.71
2023-04-16T05:03:44.660Z,9.77
2023-04-16T05:06:31.452Z,9.79
2023-04-16T05:09:17.538Z,9.80
2023-04-16T05:12:04.337Z,9.78
2023-04-16T05:14:50.057Z,9.77
2023-04-16T05:17:35.810Z,9.77
2023-04-16T05:20:23.149Z,9.81
2023-04-16T05:23:09.067Z,9.79
2023-04-16T05:25:55.729Z,9.79
2023-04-16T05:28:41.768Z,9.81
2023-04-16T05:31:27.362Z,9.80
2023-04-16T05:34:13.093Z,9.81
2023-04-16T05:36:58.971Z,9.80
2023-04-16T05:39:44.711Z,9.82
2023-04-16T05:42:30.678Z,9.81
2023-04-16T05:45:16.693Z,9.86
2023-04-16T05:48:02.413Z,9.88
2023-04-16T05:50:48.122Z,9.89
2023-04-16T05:53:33.888Z,9.90
2023-04-16T05:56:20.959Z,9.96
2023-04-16T05:59:07.104Z,9.96
2023-04-16T06:01:52.830Z,10.03
2023-04-16T06:04:38.597Z,10.04
2023-04-16T06:07:24.363Z,10.06
2023-04-16T06:10:10.899Z,10.05
2023-04-16T06:12:57.128Z,10.08
2023-04-16T06:15:43.327Z,10.12
2023-04-16T06:18:29.496Z,10.18
2023-04-16T06:21:15.748Z,10.23
2023-04-16T06:24:01.611Z,10.29
2023-04-16T06:26:47.532Z,10.30
2023-04-16T06:29:40.552Z,10.37
2023-04-16T06:32:27.235Z,10.39
2023-04-16T06:35:13.005Z,10.46
2023-04-16T06:37:58.711Z,10.50
2023-04-16T06:40:44.856Z,10.52
2023-04-16T06:43:33.600Z,10.60
2023-04-16T06:46:19.844Z,10.65
2023-04-16T06:49:06.046Z,10.69
2023-04-16T06:51:51.941Z,10.74
2023-04-16T06:54:37.732Z,10.82
2023-04-16T06:57:23.578Z,10.87
2023-04-16T07:00:09.854Z,10.97
2023-04-16T07:02:58.252Z,11.05
2023-04-16T07:05:44.734Z,11.08
2023-04-16T07:08:30.604Z,11.17
2023-04-16T07:11:16.587Z,11.20
2023-04-16T07:14:02.646Z,11.22
2023-04-16T07:16:48.754Z,11.27
2023-04-16T07:19:35.308Z,11.31
2023-04-16T07:22:21.793Z,11.38
2023-04-16T07:25:07.948Z,11.46
2023-04-16T07:27:53.877Z,11.55
2023-04-16T07:30:39.891Z,11.60
2023-04-16T07:33:26.149Z,11.68
2023-04-16T07:36:12.523Z,11.78
2023-04-16T07:38:58.632Z,11.89
2023-04-16T07:41:45.142Z,11.99
2023-04-16T07:44:32.252Z,12.07
2023-04-16T07:47:17.959Z,12.11
2023-04-16T07:50:04.125Z,12.15
2023-04-16T07:52:50.538Z,12.15
2023-04-16T07:55:36.506Z,12.18
2023-04-16T07:58:22.227Z,12.14
2023-04-16T08:01:07.966Z,12.16
2023-04-16T08:03:54.060Z,12.17
2023-04-16T08:06:40.178Z,12.15
2023-04-16T08:09:27.565Z,12.18
2023-04-16T08:12:13.517Z,12.17
2023-04-16T08:14:59.522Z,12.23
2023-04-16T08:17:45.742Z,12.30
2023-04-16T08:20:32.076Z,12.38
2023-04-16T08:23:17.802Z,12.48
2023-04-16T08:26:03.839Z,12.56
2023-04-16T08:28:49.853Z,12.66
2023-04-16T08:31:36.023Z,12.80
2023-04-16T08:34:23.824Z,12.89
2023-04-16T08:37:10.060Z,13.00
2023-04-16T08:39:56.047Z,13.08
2023-04-16T08:42:53.845Z,13.16
2023-04-16T08:45:41.506Z,13.21
2023-04-16T08:48:33.147Z,13.30
2023-04-16T08:51:26.835Z,13.41
2023-04-16T08:54:47.676Z,13.46
2023-04-16T08:57:49.705Z,13.52
2023-04-16T09:00:35.683Z,13.52
2023-04-16T09:03:22.128Z,13.67
2023-04-16T09:06:08.825Z,13.75
2023-04-16T09:08:55.551Z,13.90
2023-04-16T09:11:41.895Z,14.03
2023-04-16T09:14:27.951Z,14.12
2023-04-16T09:17:14.226Z,14.21
2023-04-16T09:20:00.548Z,14.33
2023-04-16T09:22:46.849Z,14.52
2023-04-16T09:25:34.825Z,14.68
2023-04-16T09:28:43.768Z,14.84
2023-04-16T09:31:29.683Z,15.02
2023-04-16T09:34:15.805Z,15.11
2023-04-16T09:37:17.924Z,15.28
2023-04-16T09:40:04.694Z,15.42
2023-04-16T09:42:53.481Z,15.56
2023-04-16T09:45:50.994Z,15.68
2023-04-16T09:48:37.784Z,15.82
2023-04-16T09:51:25.167Z,15.93
2023-04-16T09:54:11.750Z,15.96
2023-04-16T09:56:58.213Z,16.15
2023-04-16T09:59:44.096Z,16.19
2023-04-16T10:02:31.253Z,16.33
2023-04-16T10:05:20.390Z,16.44
2023-04-16T10:08:13.860Z,16.57
2023-04-16T10:10:59.808Z,16.71
2023-04-16T10:13:47.505Z,16.89
2023-04-16T10:16:35.578Z,16.92
2023-04-16T10:19:22.118Z,17.02
2023-04-16T10:22:08.074Z,17.11
2023-04-16T10:24:54.928Z,17.15
2023-04-16T10:27:41.567Z,17.26
2023-04-16T10:30:27.825Z,17.33
2023-04-16T10:33:13.701Z,17.37
2023-04-16T10:36:22.007Z,17.38
2023-04-16T10:39:16.846Z,17.46
2023-04-16T10:42:13.269Z,17.51
2023-04-16T10:45:00.339Z,17.53
2023-04-16T10:47:46.403Z,17.48
2023-04-16T10:50:41.693Z,17.47
2023-04-16T10:53:39.062Z,17.44
2023-04-16T10:56:28.049Z,17.36
2023-04-16T10:59:13.966Z,17.36
2023-04-16T11:02:04.074Z,17.34
2023-04-16T11:04:50.199Z,17.28
2023-04-16T11:07:36.276Z,17.28
2023-04-16T11:10:22.058Z,17.30
2023-04-16T11:13:09.164Z,17.27
2023-04-16T11:15:57.917Z,17.23
2023-04-16T11:18:51.377Z,17.22
2023-04-16T11:21:45.298Z,17.22
2023-04-16T11:24:32.246Z,17.22
2023-04-16T11:27:18.046Z,17.20
2023-04-16T11:30:11.363Z,17.18
2023-04-16T11:32:57.212Z,17.18
2023-04-16T11:35:43.538Z,17.21
2023-04-16T11:38:34.543Z,17.27
2023-04-16T11:41:21.980Z,17.51
2023-04-16T11:44:24.909Z,17.72
2023-04-16T11:47:13.799Z,17.93
2023-04-16T11:50:22.531Z,18.02
2023-04-16T11:53:12.347Z,18.11
2023-04-16T11:55:59.199Z,18.07
2023-04-16T11:59:07.225Z,18.00
2023-04-16T12:01:58.019Z,17.98
2023-04-16T12:04:44.245Z,17.92
2023-04-16T12:07:30.705Z,17.94
2023-04-16T12:10:16.442Z,17.88
2023-04-16T12:13:14.803Z,17.88
2023-04-16T12:16:03.874Z,17.86
2023-04-16T12:19:04.149Z,17.76
2023-04-16T12:21:50.760Z,17.73
2023-04-16T12:24:37.956Z,17.75
2023-04-16T12:27:28.586Z,17.76
2023-04-16T12:30:15.768Z,17.76
2023-04-16T12:33:15.504Z,17.73
2023-04-16T12:36:19.454Z,17.77
2023-04-16T12:39:07.504Z,17.79
2023-04-16T12:41:53.752Z,17.77
2023-04-16T12:44:39.554Z,17.78
2023-04-16T12:47:25.290Z,17.76
2023-04-16T12:50:12.189Z,17.75
2023-04-16T12:52:58.444Z,17.70
2023-04-16T12:55:45.424Z,17.67
2023-04-16T12:58:31.453Z,17.70
2023-04-16T13:01:20.601Z,17.78
2023-04-16T13:04:07.751Z,18.02
2023-04-16T13:06:53.829Z,18.36
2023-04-16T13:09:40.139Z,18.73
2023-04-16T13:12:27.429Z,19.05
2023-04-16T13:15:13.507Z,19.23
2023-04-16T13:17:59.652Z,19.35
2023-04-16T13:20:45.957Z,19.40
2023-04-16T13:23:31.786Z,19.38
2023-04-16T13:26:17.816Z,19.26
2023-04-16T13:29:03.825Z,19.11
2023-04-16T13:31:49.755Z,19.02
2023-04-16T13:34:35.912Z,18.91
2023-04-16T13:37:21.660Z,18.82
2023-04-16T13:40:08.453Z,18.73
2023-04-16T13:42:54.679Z,18.59
2023-04-16T13:45:40.704Z,18.53
2023-04-16T13:48:26.849Z,18.43
2023-04-16T13:51:15.479Z,18.40
2023-04-16T13:54:02.815Z,18.39
2023-04-16T13:56:50.678Z,18.36
2023-04-16T13:59:37.258Z,18.35
2023-04-16T14:02:23.128Z,18.39
2023-04-16T14:05:09.745Z,18.58
2023-04-16T14:07:56.079Z,19.03
2023-04-16T14:10:42.249Z,19.51
2023-04-16T14:13:28.417Z,19.83
2023-04-16T14:16:14.542Z,20.03
2023-04-16T14:19:00.951Z,20.12
2023-04-16T14:21:47.407Z,20.17
2023-04-16T14:24:33.329Z,20.12
2023-04-16T14:27:19.021Z,20.04
2023-04-16T14:30:06.275Z,19.81
2023-04-16T14:32:52.499Z,19.57
2023-04-16T14:35:38.324Z,19.40
2023-04-16T14:38:24.288Z,19.19
2023-04-16T14:41:12.539Z,19.00
2023-04-16T14:43:59.500Z,18.80
2023-04-16T14:46:46.442Z,18.58
2023-04-16T14:49:32.489Z,18.44
2023-04-16T14:52:18.680Z,18.33
2023-04-16T14:55:05.819Z,18.25
2023-04-16T14:57:51.591Z,18.19
2023-04-16T15:00:37.689Z,18.14
2023-04-16T15:03:24.166Z,18.10
2023-04-16T15:06:11.473Z,18.04
2023-04-16T15:08:57.208Z,17.98
2023-04-16T15:11:43.000Z,17.88
2023-04-16T15:14:28.901Z,17.85
2023-04-16T15:17:14.952Z,17.81
2023-04-16T15:20:01.883Z,17.88
2023-04-16T15:22:47.555Z,17.98
2023-04-16T15:25:33.500Z,18.09
2023-04-16T15:28:19.765Z,18.22
2023-04-16T15:31:05.905Z,18.40
2023-04-16T15:33:52.701Z,18.67
2023-04-16T15:36:38.627Z,18.89
2023-04-16T15:39:24.932Z,18.92
2023-04-16T15:42:13.238Z,18.87
2023-04-16T15:44:59.252Z,18.79
2023-04-16T15:47:48.082Z,18.67
2023-04-16T15:50:34.046Z,18.49
2023-04-16T15:53:20.151Z,18.41
2023-04-16T15:56:06.408Z,18.28
2023-04-16T15:58:52.497Z,18.16
2023-04-16T16:01:38.795Z,18.11
2023-04-16T16:04:26.553Z,18.05
2023-04-16T16:07:13.120Z,18.00
2023-04-16T16:09:58.947Z,17.95
2023-04-16T16:12:44.929Z,17.84
2023-04-16T16:15:32.165Z,17.80
2023-04-16T16:18:18.083Z,17.73
2023-04-16T16:21:04.106Z,17.65
2023-04-16T16:23:50.077Z,17.62
2023-04-16T16:26:36.178Z,17.58
2023-04-16T16:29:22.307Z,17.54
2023-04-16T16:32:08.529Z,17.47
2023-04-16T16:34:54.530Z,17.41
2023-04-16T16:37:40.666Z,17.31
2023-04-16T16:40:26.735Z,17.26
2023-04-16T16:43:13.237Z,17.27
2023-04-16T16:45:59.314Z,17.22
2023-04-16T16:48:46.406Z,17.16
2023-04-16T16:51:33.722Z,17.10
2023-04-16T16:54:54.667Z,17.06
2023-04-16T16:57:46.129Z,17.04
2023-04-16T17:00:44.584Z,17.02
2023-04-16T17:03:30.453Z,16.96
2023-04-16T17:06:16.559Z,16.92
2023-04-16T17:09:02.525Z,16.92
2023-04-16T17:11:48.476Z,16.88
2023-04-16T17:14:35.445Z,16.83
2023-04-16T17:17:21.817Z,16.69
2023-04-16T17:20:10.019Z,16.48
2023-04-16T17:22:56.050Z,16.30
2023-04-16T17:25:42.272Z,16.10
2023-04-16T17:28:28.368Z,15.95
2023-04-16T17:31:14.966Z,15.82
2023-04-16T17:34:01.134Z,15.70
2023-04-16T17:36:51.876Z,15.57
2023-04-16T17:39:38.288Z,15.43
2023-04-16T17:42:26.081Z,15.35
2023-04-16T17:45:13.664Z,15.25
2023-04-16T17:47:59.640Z,15.16
2023-04-16T17:50:46.068Z,15.04
2023-04-16T17:53:33.001Z,14.99
2023-04-16T17:56:19.023Z,14.87
2023-04-16T17:59:05.245Z,14.85
2023-04-16T18:01:54.914Z,14.79
2023-04-16T18:04:40.969Z,14.72
2023-04-16T18:07:27.289Z,14.63
2023-04-16T18:10:13.438Z,14.55
2023-04-16T18:12:59.608Z,14.57
2023-04-16T18:15:45.906Z,14.53
2023-04-16T18:18:31.974Z,14.46
2023-04-16T18:21:17.735Z,14.45
2023-04-16T18:24:03.958Z,14.43
2023-04-16T18:26:49.996Z,14.41
2023-04-16T18:29:36.089Z,14.40
2023-04-16T18:32:22.100Z,14.38
2023-04-16T18:35:08.294Z,14.42
2023-04-16T18:37:54.323Z,14.40
2023-04-16T18:40:42.235Z,14.49
2023-04-16T18:43:28.090Z,14.51
2023-04-16T18:46:14.915Z,14.57
2023-04-16T18:49:01.036Z,14.56
2023-04-16T18:51:47.082Z,14.58
2023-04-16T18:54:33.050Z,14.58
2023-04-16T18:57:19.098Z,14.58
2023-04-16T19:00:11.124Z,14.60
2023-04-16T19:02:56.944Z,14.58
2023-04-16T19:05:43.092Z,14.55
2023-04-16T19:08:29.149Z,14.56
2023-04-16T19:11:15.346Z,14.54
2023-04-16T19:14:03.307Z,14.51
2023-04-16T19:16:49.348Z,14.51
2023-04-16T19:19:36.032Z,14.53
2023-04-16T19:22:22.200Z,14.50
2023-04-16T19:25:09.280Z,14.49
2023-04-16T19:28:00.007Z,14.42
2023-04-16T19:30:52.962Z,14.35
2023-04-16T19:33:39.052Z,14.34
2023-04-16T19:36:24.932Z,14.30
2023-04-16T19:39:13.012Z,14.27
2023-04-16T19:42:01.930Z,14.24
2023-04-16T19:44:50.871Z,14.23
2023-04-16T19:47:38.516Z,14.24
2023-04-16T19:50:24.878Z,14.20
2023-04-16T19:53:11.918Z,14.24
2023-04-16T19:55:58.927Z,14.22
2023-04-16T19:58:45.919Z,14.25
2023-04-16T20:01:43.466Z,14.23
2023-04-16T20:04:34.910Z,14.25
2023-04-16T20:07:20.872Z,14.27
2023-04-16T20:10:07.486Z,14.28
2023-04-16T20:12:53.547Z,14.29
2023-04-16T20:15:39.577Z,14.32
2023-04-16T20:18:28.263Z,14.32
2023-04-16T20:21:14.800Z,14.29
2023-04-16T20:24:01.811Z,14.30
2023-04-16T20:26:47.886Z,14.33
2023-04-16T20:29:33.681Z,14.31
2023-04-16T20:32:20.203Z,14.33
2023-04-16T20:35:10.439Z,14.29
2023-04-16T20:37:56.644Z,14.27
2023-04-16T20:40:45.063Z,14.21
2023-04-16T20:43:38.172Z,14.21
2023-04-16T20:46:30.346Z,14.15
2023-04-16T20:49:18.596Z,14.18
2023-04-16T20:52:05.613Z,14.15
2023-04-16T20:54:52.468Z,14.14
2023-04-16T20:57:40.504Z,14.17
2023-04-16T21:00:26.145Z,14.17
2023-04-16T21:03:12.074Z,14.15
2023-04-16T21:05:58.145Z,14.14
2023-04-16T21:08:44.521Z,14.18
2023-04-16T21:11:33.502Z,14.18
2023-04-16T21:14:19.415Z,14.16
2023-04-16T21:17:05.604Z,14.19
2023-04-16T21:19:51.657Z,14.20
2023-04-16T21:22:37.863Z,14.16
2023-04-16T21:25:24.139Z,14.19
2023-04-16T21:28:10.054Z,14.17
2023-04-16T21:30:55.883Z,14.16
2023-04-16T21:33:41.584Z,14.12
2023-04-16T21:36:32.089Z,14.10
2023-04-16T21:39:19.840Z,14.08
2023-04-16T21:42:09.091Z,14.09
2023-04-16T21:44:56.353Z,14.06
2023-04-16T21:47:42.229Z,14.03
2023-04-16T21:50:28.200Z,14.06
2023-04-16T21:53:14.249Z,14.10
2023-04-16T21:56:00.204Z,14.10
2023-04-16T21:58:47.652Z,14.09
2023-04-16T22:01:35.432Z,14.10
2023-04-16T22:04:26.264Z,14.10
2023-04-16T22:07:12.193Z,14.13
2023-04-16T22:10:11.342Z,14.11
2023-04-16T22:12:59.619Z,14.15
2023-04-16T22:15:46.166Z,14.12
2023-04-16T22:18:35.078Z,14.09
2023-04-16T22:21:21.323Z,14.09
2023-04-16T22:24:07.834Z,14.03
2023-04-16T22:26:53.784Z,13.98
2023-04-16T22:29:40.498Z,13.93
2023-04-16T22:32:30.327Z,13.92
2023-04-16T22:35:16.572Z,13.85
2023-04-16T22:38:02.606Z,13.87
2023-04-16T22:40:49.094Z,13.87
2023-04-16T22:43:37.152Z,13.83
2023-04-16T22:46:24.806Z,13.84
2023-04-16T22:49:11.189Z,13.88
2023-04-16T22:51:57.337Z,13.88
2023-04-16T22:54:43.263Z,13.87
2023-04-16T22:57:29.105Z,13.88
2023-04-16T23:00:18.288Z,13.88
2023-04-16T23:03:04.559Z,13.88
2023-04-16T23:05:52.012Z,13.85
2023-04-16T23:08:38.077Z,13.77
2023-04-16T23:11:24.188Z,13.78
2023-04-16T23:14:10.109Z,13.74
2023-04-16T23:16:55.935Z,13.70
2023-04-16T23:19:42.407Z,13.70
2023-04-16T23:22:28.493Z,13.69
2023-04-16T23:25:14.251Z,13.65
2023-04-16T23:28:00.240Z,13.65
2023-04-16T23:30:46.810Z,13.58
2023-04-16T23:33:32.506Z,13.52
2023-04-16T23:36:18.340Z,13.52
2023-04-16T23:39:04.039Z,13.48
2023-04-16T23:41:58.272Z,13.48
2023-04-16T23:44:45.172Z,13.48
2023-04-16T23:47:31.344Z,13.47
2023-04-16T23:50:17.245Z,13.48
2023-04-16T23:53:03.187Z,13.46
2023-04-16T23:55:49.439Z,13.47
2023-04-16T23:58:35.384Z,13.45
